createdAt,value
2023-05-07T00:04:00.327Z,11.50
2023-05-07T00:09:01.865Z,12.50
2023-05-07T00:14:03.395Z,12.75
2023-05-07T00:19:04.935Z,13.05
2023-05-07T00:24:06.302Z,11.48
2023-05-07T00:29:07.704Z,12.13
2023-05-07T00:34:09.165Z,12.57
2023-05-07T00:39:10.677Z,11.88
2023-05-07T00:44:12.007Z,12.38
2023-05-07T00:49:13.413Z,12.25
2023-05-07T00:54:14.851Z,12.52
2023-05-07T00:59:16.287Z,12.75
2023-05-07T01:04:17.779Z,13.15
2023-05-07T01:09:21.015Z,12.75
2023-05-07T01:14:22.542Z,13.50
2023-05-07T01:19:23.966Z,13.65
2023-05-07T01:24:27.980Z,13.27
2023-05-07T01:29:29.679Z,12.45
2023-05-07T01:34:32.408Z,13.50
2023-05-07T01:39:34.102Z,12.10
2023-05-07T01:44:35.650Z,13.57
2023-05-07T01:49:37.997Z,13.02
2023-05-07T01:54:39.402Z,12.90
2023-05-07T01:59:40.851Z,14.45
2023-05-07T02:04:42.249Z,13.48
2023-05-07T02:09:43.644Z,12.48
2023-05-07T02:14:44.970Z,13.13
2023-05-07T02:19:46.359Z,13.63
2023-05-07T02:24:47.789Z,13.45
2023-05-07T02:29:49.099Z,12.68
2023-05-07T02:34:51.359Z,12.77
2023-05-07T02:39:52.733Z,13.32
2023-05-07T02:44:54.114Z,12.73
2023-05-07T02:49:55.957Z,12.70
2023-05-07T02:54:57.329Z,12.18
2023-05-07T02:59:59.209Z,12.70
2023-05-07T03:05:00.605Z,12.50
2023-05-07T03:10:02.070Z,12.40
2023-05-07T03:15:03.576Z,13.23
2023-05-07T03:20:05.448Z,12.60
2023-05-07T03:25:07.533Z,11.60
2023-05-07T03:30:10.853Z,11.57
2023-05-07T03:35:13.459Z,12.35
2023-05-07T03:40:14.972Z,11.55
2023-05-07T03:45:16.611Z,10.85
2023-05-07T03:50:18.047Z,10.88
2023-05-07T03:55:19.476Z,10.75
2023-05-07T04:00:21.262Z,10.02
2023-05-07T04:05:22.645Z,10.27
2023-05-07T04:10:24.016Z,9.95
2023-05-07T04:15:25.545Z,8.65
2023-05-07T04:20:27.190Z,8.70
2023-05-07T04:25:28.696Z,9.20
2023-05-07T04:30:30.416Z,8.63
2023-05-07T04:35:32.024Z,7.28
2023-05-07T04:40:33.391Z,7.90
2023-05-07T04:45:34.898Z,7.90
2023-05-07T04:50:36.400Z,8.00
2023-05-07T04:55:37.723Z,8.05
2023-05-07T05:00:40.142Z,7.85
2023-05-07T05:05:41.595Z,8.15
2023-05-07T05:10:44.536Z,8.35
2023-05-07T05:15:46.589Z,9.45
2023-05-07T05:20:48.215Z,8.25
2023-05-07T05:25:49.682Z,7.68
2023-05-07T05:30:51.250Z,8.48
2023-05-07T05:35:52.592Z,8.55
2023-05-07T05:40:56.417Z,8.50
2023-05-07T05:46:01.755Z,9.20
2023-05-07T05:51:03.361Z,9.05
2023-05-07T05:56:05.023Z,7.60
2023-05-07T06:01:06.525Z,8.43
2023-05-07T06:06:07.866Z,7.75
2023-05-07T06:11:09.239Z,7.93
2023-05-07T06:16:10.667Z,7.60
2023-05-07T06:21:12.077Z,8.18
2023-05-07T06:26:13.543Z,7.70
2023-05-07T06:31:24.058Z,7.70
2023-05-07T06:36:25.473Z,7.03
2023-05-07T06:41:26.870Z,7.85
2023-05-07T06:46:28.686Z,6.95
2023-05-07T06:51:30.159Z,6.75
2023-05-07T06:56:31.926Z,6.70
2023-05-07T07:01:33.612Z,7.70
2023-05-07T07:06:35.033Z,6.53
2023-05-07T07:11:36.408Z,7.22
2023-05-07T07:16:37.856Z,6.72
2023-05-07T07:21:39.300Z,6.93
2023-05-07T07:26:40.962Z,5.60
2023-05-07T07:31:42.397Z,5.82
2023-05-07T07:36:46.739Z,5.40
2023-05-07T07:41:48.474Z,5.38
2023-05-07T07:46:49.848Z,5.25
2023-05-07T07:51:52.172Z,6.07
2023-05-07T07:56:53.578Z,6.82
2023-05-07T08:01:57.770Z,5.90
2023-05-07T08:06:59.210Z,5.22
2023-05-07T08:12:00.706Z,5.35
2023-05-07T08:17:02.227Z,5.32
2023-05-07T08:22:06.566Z,4.60
2023-05-07T08:27:07.939Z,4.43
2023-05-07T08:32:09.266Z,4.97
2023-05-07T08:37:10.601Z,4.32
2023-05-07T08:42:12.413Z,3.78
2023-05-07T08:47:13.819Z,4.60
2023-05-07T08:52:15.395Z,4.22
2023-05-07T08:57:16.806Z,4.80
2023-05-07T09:02:19.118Z,4.07
2023-05-07T09:07:20.940Z,4.00
2023-05-07T09:12:22.511Z,4.10
2023-05-07T09:17:23.901Z,4.20
2023-05-07T09:22:25.350Z,3.80
2023-05-07T09:27:27.229Z,3.63
2023-05-07T09:32:28.690Z,3.85
2023-05-07T09:37:31.824Z,3.20
2023-05-07T09:42:33.441Z,4.05
2023-05-07T09:47:38.292Z,3.88
2023-05-07T09:52:40.042Z,3.10
2023-05-07T09:57:42.959Z,4.18
2023-05-07T10:02:49.202Z,3.42
2023-05-07T10:07:51.367Z,3.90
2023-05-07T10:12:53.393Z,3.30
2023-05-07T10:17:55.612Z,3.45
2023-05-07T10:22:57.358Z,3.22
2023-05-07T10:28:01.839Z,3.55
2023-05-07T10:33:07.185Z,4.43
2023-05-07T10:38:09.064Z,3.55
2023-05-07T10:43:11.120Z,2.70
2023-05-07T10:53:20.689Z,2.47
2023-05-07T10:58:31.463Z,2.85
2023-05-07T11:03:33.717Z,2.22
2023-05-07T11:08:53.531Z,2.90
2023-05-07T11:13:55.125Z,2.65
2023-05-07T11:18:56.910Z,2.17
2023-05-07T11:23:58.830Z,2.78
2023-05-07T11:29:01.737Z,2.10
2023-05-07T11:34:03.325Z,2.58
2023-05-07T11:39:04.732Z,2.00
2023-05-07T11:44:06.097Z,2.30
2023-05-07T11:49:07.452Z,2.05
2023-05-07T11:54:09.713Z,1.92
2023-05-07T11:59:17.844Z,1.90
2023-05-07T12:04:22.562Z,2.45
2023-05-07T12:09:24.141Z,2.28
2023-05-07T12:14:28.215Z,1.58
2023-05-07T12:19:30.508Z,1.70
2023-05-07T12:24:45.454Z,2.00
2023-05-07T12:29:52.817Z,2.13
2023-05-07T12:34:54.283Z,1.63
2023-05-07T12:40:07.320Z,2.00
2023-05-07T12:45:09.732Z,2.33
2023-05-07T12:50:12.652Z,1.67
2023-05-07T12:55:17.702Z,1.63
2023-05-07T13:00:32.936Z,1.40
2023-05-07T13:05:34.836Z,1.13
2023-05-07T13:10:36.421Z,1.52
2023-05-07T13:15:38.772Z,0.98
2023-05-07T13:20:40.173Z,1.20
2023-05-07T13:25:41.739Z,1.30
2023-05-07T13:30:43.151Z,2.13
2023-05-07T13:35:44.613Z,1.42
2023-05-07T13:40:45.971Z,1.25
2023-05-07T13:45:47.363Z,1.13
2023-05-07T13:50:48.747Z,1.27
2023-05-07T13:55:50.177Z,1.10
2023-05-07T14:00:51.649Z,1.30
2023-05-07T14:05:53.036Z,1.38
2023-05-07T14:10:54.615Z,1.23
2023-05-07T14:15:56.066Z,1.15
2023-05-07T14:20:57.390Z,1.40
2023-05-07T14:25:58.725Z,1.63
2023-05-07T14:31:00.779Z,1.55
2023-05-07T14:36:02.430Z,1.40
2023-05-07T14:41:03.940Z,1.90
2023-05-07T14:46:05.461Z,1.98
2023-05-07T14:51:07.492Z,1.48
2023-05-07T14:56:09.071Z,1.05
2023-05-07T15:01:11.516Z,1.60
2023-05-07T15:06:12.892Z,1.00
2023-05-07T15:11:15.587Z,1.40
2023-05-07T15:16:17.096Z,1.27
2023-05-07T15:21:18.647Z,2.00
2023-05-07T15:26:20.033Z,1.55
2023-05-07T15:31:21.632Z,1.10
2023-05-07T15:36:23.148Z,1.45
2023-05-07T15:41:25.280Z,1.35
2023-05-07T15:46:29.105Z,1.30
2023-05-07T15:51:31.871Z,1.17
2023-05-07T15:56:33.912Z,1.38
2023-05-07T16:01:35.533Z,1.25
2023-05-07T16:06:36.897Z,1.58
2023-05-07T16:11:39.315Z,1.77
2023-05-07T16:16:40.987Z,1.70
2023-05-07T16:21:42.432Z,1.60
2023-05-07T16:26:43.856Z,1.10
2023-05-07T16:31:45.553Z,1.50
2023-05-07T16:36:46.975Z,1.50
2023-05-07T16:41:48.913Z,1.70
2023-05-07T16:46:50.487Z,2.00
2023-05-07T16:51:52.245Z,1.58
2023-05-07T16:56:53.713Z,1.80
2023-05-07T17:01:56.457Z,2.67
2023-05-07T17:06:58.763Z,1.70
2023-05-07T17:12:00.208Z,2.35
2023-05-07T17:17:01.631Z,1.45
2023-05-07T17:22:03.019Z,2.38
2023-05-07T17:27:04.433Z,2.28
2023-05-07T17:32:08.245Z,1.33
2023-05-07T17:37:09.900Z,1.48
2023-05-07T17:42:11.275Z,3.58
2023-05-07T17:47:14.116Z,3.75
2023-05-07T17:52:15.610Z,4.35
2023-05-07T17:57:17.000Z,4.10
2023-05-07T18:02:18.611Z,3.63
2023-05-07T18:07:20.053Z,3.97
2023-05-07T18:12:21.621Z,3.78
2023-05-07T18:17:24.423Z,3.80
2023-05-07T18:22:25.929Z,3.92
2023-05-07T18:27:27.324Z,4.47
2023-05-07T18:32:28.807Z,3.70
2023-05-07T18:37:30.952Z,3.53
2023-05-07T18:42:34.041Z,4.45
2023-05-07T18:47:37.728Z,4.20
2023-05-07T18:52:39.157Z,3.70
2023-05-07T18:57:41.143Z,4.65
2023-05-07T19:02:42.552Z,4.93
2023-05-07T19:07:45.427Z,4.20
2023-05-07T19:12:46.875Z,4.10
2023-05-07T19:17:48.265Z,4.57
2023-05-07T19:22:49.784Z,4.18
2023-05-07T19:27:51.424Z,4.93
2023-05-07T19:32:53.072Z,5.38
2023-05-07T19:37:54.502Z,4.75
2023-05-07T19:42:55.944Z,4.70
2023-05-07T19:47:57.301Z,5.10
2023-05-07T19:52:58.819Z,4.72
2023-05-07T19:58:00.238Z,4.97
2023-05-07T20:03:01.678Z,4.47
2023-05-07T20:08:03.490Z,4.20
2023-05-07T20:13:04.911Z,3.70
2023-05-07T20:18:06.374Z,4.55
2023-05-07T20:23:07.871Z,4.07
2023-05-07T20:28:09.393Z,4.35
2023-05-07T20:33:11.003Z,4.88
2023-05-07T20:38:12.973Z,4.25
2023-05-07T20:43:14.319Z,4.57
2023-05-07T20:48:15.659Z,4.57
2023-05-07T20:53:16.977Z,4.88
2023-05-07T20:58:18.386Z,4.88
2023-05-07T21:03:19.767Z,4.55
2023-05-07T21:08:21.098Z,4.50
2023-05-07T21:13:23.384Z,4.25
2023-05-07T21:18:26.722Z,4.68
2023-05-07T21:23:28.188Z,4.25
2023-05-07T21:28:29.545Z,4.15
2023-05-07T21:33:30.874Z,3.78
2023-05-07T21:38:32.241Z,3.92
2023-05-07T21:43:33.618Z,3.88
2023-05-07T21:48:35.013Z,3.65
2023-05-07T21:53:36.626Z,3.30
2023-05-07T21:58:38.033Z,3.30
2023-05-07T22:03:39.648Z,3.97
2023-05-07T22:08:41.152Z,2.97
2023-05-07T22:13:42.882Z,3.55
2023-05-07T22:18:44.289Z,3.20
2023-05-07T22:23:45.597Z,3.28
2023-05-07T22:28:46.912Z,3.10
2023-05-07T22:33:48.267Z,3.47
2023-05-07T22:38:49.675Z,3.20
2023-05-07T22:43:51.142Z,3.25
2023-05-07T22:48:52.803Z,3.30
2023-05-07T22:53:54.288Z,3.50
2023-05-07T22:58:55.674Z,3.28
2023-05-07T23:03:57.001Z,3.10
2023-05-07T23:08:58.865Z,3.42
2023-05-07T23:14:00.738Z,3.72
2023-05-07T23:19:02.492Z,3.25
2023-05-07T23:24:03.988Z,2.95
2023-05-07T23:29:05.375Z,2.88
2023-05-07T23:34:06.834Z,3.95
2023-05-07T23:39:08.441Z,3.95
2023-05-07T23:44:09.777Z,3.25
2023-05-07T23:49:11.386Z,3.03
2023-05-07T23:54:12.949Z,3.08
2023-05-07T23:59:14.337Z,3.15
